Time;durP1;ratioP1;P1;durP2;ratioP2;P2;SDS_P1;SDS_P2;PMS_P1;PMS_P2;Temp;Humidity;BMP_temperature;BMP_pressure;BME280_temperature;BME280_humidity;BME280_pressure;Samples;Min_cycle;Max_cycle;Signal;HPM_P1;HPM_P2
2022/04/13 00:00:47;;;;;;;13.27;6.47;;;1.30;99.90;;;;;;4156119;28;20330;-57
2022/04/13 00:02:48;;;;;;;13.13;6.80;;;1.30;99.90;;;;;;4157418;28;20321;-54
2022/04/13 00:04:49;;;;;;;16.07;7.50;;;1.40;99.90;;;;;;4154627;28;20743;-65
2022/04/13 00:06:50;;;;;;;13.33;7.00;;;1.40;99.90;;;;;;4155950;28;20348;-60
2022/04/13 00:08:51;;;;;;;14.10;7.90;;;1.40;99.90;;;;;;4128601;28;20334;-58
2022/04/13 00:10:52;;;;;;;14.53;8.10;;;1.40;99.90;;;;;;4139274;28;20326;-57
2022/04/13 00:12:53;;;;;;;12.77;7.70;;;1.40;99.90;;;;;;4140444;28;20321;-53
2022/04/13 00:14:55;;;;;;;13.57;7.77;;;1.40;99.90;;;;;;4139457;28;20299;-54
2022/04/13 00:16:56;;;;;;;11.43;6.87;;;1.50;99.90;;;;;;4141091;28;20302;-55
2022/04/13 00:18:57;;;;;;;11.23;7.20;;;1.50;99.90;;;;;;4141526;28;20295;-58
2022/04/13 00:20:58;;;;;;;8.13;5.80;;;1.50;99.90;;;;;;4150900;28;20344;-56
2022/04/13 00:22:59;;;;;;;9.87;6.33;;;1.50;99.90;;;;;;4154901;28;20337;-57
2022/04/13 00:25:00;;;;;;;17.63;7.83;;;1.60;99.90;;;;;;4144687;28;20765;-59
2022/04/13 00:27:02;;;;;;;13.70;8.70;;;1.60;99.90;;;;;;4155990;28;20282;-54
2022/04/13 00:29:03;;;;;;;13.97;6.43;;;1.60;99.90;;;;;;4151172;28;20301;-62
2022/04/13 00:31:04;;;;;;;12.17;6.67;;;1.60;99.90;;;;;;4141518;28;20662;-52
2022/04/13 00:33:05;;;;;;;11.50;6.33;;;1.60;99.90;;;;;;4141029;28;20271;-63
2022/04/13 00:35:07;;;;;;;13.17;6.37;;;1.60;99.90;;;;;;4155780;28;21063;-53
2022/04/13 00:37:08;;;;;;;12.63;6.23;;;1.60;99.90;;;;;;4154657;28;21322;-54
2022/04/13 00:39:09;;;;;;;11.20;6.43;;;1.60;99.90;;;;;;4136074;28;20306;-54
2022/04/13 00:41:12;;;;;;;11.53;6.23;;;1.60;99.90;;;;;;4140527;28;20255;-53
2022/04/13 00:43:13;;;;;;;12.27;6.63;;;1.60;99.90;;;;;;4145423;28;21138;-52
2022/04/13 00:45:14;;;;;;;10.17;5.90;;;1.60;99.90;;;;;;4139738;28;21138;-54
2022/04/13 00:47:15;;;;;;;10.67;5.90;;;1.60;99.90;;;;;;4140823;28;20682;-54
2022/04/13 00:49:17;;;;;;;9.43;5.80;;;1.70;99.90;;;;;;4140984;28;21436;-55
2022/04/13 00:51:18;;;;;;;10.27;5.80;;;1.70;99.90;;;;;;4145984;28;20341;-52
2022/04/13 00:53:21;;;;;;;10.70;6.40;;;1.60;99.90;;;;;;4140164;28;20325;-55
2022/04/13 00:55:26;;;;;;;12.23;6.77;;;1.60;99.90;;;;;;4140892;28;20373;-52
2022/04/13 00:57:30;;;;;;;20.13;8.00;;;1.60;99.90;;;;;;4148399;28;20275;-56
2022/04/13 00:59:35;;;;;;;15.53;7.60;;;1.50;99.90;;;;;;4157068;28;20885;-56
2022/04/13 01:01:47;;;;;;;15.70;7.40;;;1.40;99.90;;;;;;4155699;28;20771;-50
2022/04/13 01:03:54;;;;;;;13.93;7.93;;;1.30;99.90;;;;;;4154798;28;20345;-51
2022/04/13 01:05:55;;;;;;;14.10;7.80;;;1.30;99.90;;;;;;4155509;28;20279;-49
2022/04/13 01:07:57;;;;;;;16.63;8.33;;;1.20;99.90;;;;;;4156909;28;20271;-54
2022/04/13 01:10:02;;;;;;;14.67;6.90;;;1.10;99.90;;;;;;4156038;28;21199;-55
2022/04/13 01:12:04;;;;;;;15.60;7.87;;;1.10;99.90;;;;;;4156932;28;20321;-57
2022/04/13 01:14:05;;;;;;;15.43;8.07;;;1.10;99.90;;;;;;4145710;28;20280;-49
2022/04/13 01:16:09;;;;;;;15.33;7.83;;;1.00;99.90;;;;;;4140269;28;20259;-53
2022/04/13 01:18:11;;;;;;;15.27;6.90;;;0.90;99.90;;;;;;4150549;28;20291;-61
2022/04/13 01:20:12;;;;;;;13.67;7.37;;;0.80;99.90;;;;;;4155984;28;20340;-54
2022/04/13 01:22:20;;;;;;;13.60;7.40;;;0.70;99.90;;;;;;4156608;28;20255;-54
2022/04/13 01:24:22;;;;;;;14.80;6.80;;;0.60;99.90;;;;;;4158911;28;20600;-52
2022/04/13 01:26:23;;;;;;;12.27;7.27;;;0.60;99.90;;;;;;4159413;28;20278;-51
2022/04/13 01:28:24;;;;;;;13.93;7.43;;;0.50;99.90;;;;;;4148856;28;20334;-52
2022/04/13 01:30:26;;;;;;;14.57;7.47;;;0.50;99.90;;;;;;4143181;28;20294;-52
2022/04/13 01:32:28;;;;;;;15.37;7.70;;;0.50;99.90;;;;;;4155247;28;20294;-54
2022/04/13 01:34:30;;;;;;;12.17;7.07;;;0.40;99.90;;;;;;4158014;28;20452;-55
2022/04/13 01:36:33;;;;;;;12.83;7.10;;;0.40;99.90;;;;;;4157314;28;20388;-53
2022/04/13 01:38:34;;;;;;;14.03;7.60;;;0.40;99.90;;;;;;4147453;28;20314;-54
2022/04/13 01:40:35;;;;;;;12.07;7.30;;;0.40;99.90;;;;;;4142211;28;20904;-55
2022/04/13 01:42:37;;;;;;;14.83;7.87;;;0.40;99.90;;;;;;4145353;28;20287;-56
2022/04/13 01:44:41;;;;;;;13.87;6.63;;;0.40;99.90;;;;;;4144772;28;20291;-56
2022/04/13 01:46:42;;;;;;;12.27;6.90;;;0.40;99.90;;;;;;4158606;28;20286;-52
2022/04/13 01:48:43;;;;;;;15.03;6.53;;;0.40;99.90;;;;;;4157062;28;20279;-51
2022/04/13 01:50:45;;;;;;;11.47;7.40;;;0.40;99.90;;;;;;4159378;28;20761;-55
2022/04/13 01:52:47;;;;;;;12.83;6.87;;;0.50;99.90;;;;;;4158070;28;20275;-52
2022/04/13 01:54:49;;;;;;;8.97;6.17;;;0.40;99.90;;;;;;4144637;28;20644;-55
2022/04/13 01:56:50;;;;;;;12.07;6.77;;;0.40;99.90;;;;;;4142610;28;20317;-53
2022/04/13 01:58:51;;;;;;;13.33;6.73;;;0.40;99.90;;;;;;4144156;28;20278;-55
2022/04/13 02:00:54;;;;;;;10.50;6.07;;;0.50;99.90;;;;;;4158698;28;20337;-50
2022/04/13 02:02:55;;;;;;;13.70;6.40;;;0.40;99.90;;;;;;4157791;28;20275;-57
2022/04/13 02:04:57;;;;;;;12.07;7.40;;;0.40;99.90;;;;;;4157535;28;20332;-54
2022/04/13 02:06:58;;;;;;;10.10;6.23;;;0.40;99.90;;;;;;4144916;28;20275;-54
2022/04/13 02:08:59;;;;;;;11.03;6.83;;;0.50;99.90;;;;;;4142917;28;20368;-54
2022/04/13 02:11:02;;;;;;;10.57;5.97;;;0.40;99.90;;;;;;4147396;28;20310;-52
2022/04/13 02:13:04;;;;;;;11.67;6.10;;;0.50;99.90;;;;;;4159214;28;20329;-55
2022/04/13 02:15:05;;;;;;;16.23;6.33;;;0.40;99.90;;;;;;4157737;28;20309;-55
2022/04/13 02:17:07;;;;;;;10.57;5.73;;;0.40;99.90;;;;;;4149956;28;20341;-54
2022/04/13 02:19:08;;;;;;;10.27;6.10;;;0.40;99.90;;;;;;4142358;28;20280;-51
2022/04/13 02:21:09;;;;;;;11.50;6.07;;;0.40;99.90;;;;;;4142625;28;20739;-62
2022/04/13 02:23:10;;;;;;;11.20;6.43;;;0.40;99.90;;;;;;4143477;28;20333;-56
2022/04/13 02:25:12;;;;;;;12.57;6.23;;;0.40;99.90;;;;;;4141942;28;20337;-55
2022/04/13 02:27:13;;;;;;;12.73;6.23;;;0.40;99.90;;;;;;4140354;28;20842;-55
2022/04/13 02:29:14;;;;;;;15.73;7.17;;;0.40;99.90;;;;;;4141814;28;20271;-54
2022/04/13 02:31:16;;;;;;;12.87;7.07;;;0.40;99.90;;;;;;4142064;28;20280;-52
2022/04/13 02:33:17;;;;;;;17.03;7.53;;;0.40;99.90;;;;;;4141386;28;20393;-52
2022/04/13 02:35:18;;;;;;;12.97;6.63;;;0.30;99.90;;;;;;4140872;28;20292;-50
2022/04/13 02:37:19;;;;;;;12.03;6.37;;;0.30;99.90;;;;;;4140641;28;20337;-51
2022/04/13 02:39:20;;;;;;;13.87;6.60;;;0.30;99.90;;;;;;4142745;28;20302;-49
2022/04/13 02:41:21;;;;;;;12.47;6.87;;;0.20;99.90;;;;;;4140839;28;20280;-63
2022/04/13 02:43:24;;;;;;;11.87;6.70;;;0.20;99.90;;;;;;4126361;28;20684;-57
2022/04/13 02:45:26;;;;;;;12.57;7.20;;;0.20;99.90;;;;;;4124426;28;20327;-64
2022/04/13 02:47:27;;;;;;;19.60;8.20;;;0.20;99.90;;;;;;4126023;28;20383;-55
2022/04/13 02:49:28;;;;;;;17.37;7.80;;;0.10;99.90;;;;;;4139216;28;20276;-54
2022/04/13 02:51:30;;;;;;;14.57;7.50;;;0.10;99.90;;;;;;4141278;28;20322;-53
2022/04/13 02:53:31;;;;;;;18.27;7.93;;;0.00;99.90;;;;;;4140233;28;20259;-55
2022/04/13 02:55:33;;;;;;;14.77;6.97;;;0.00;99.90;;;;;;4140817;28;20706;-52
2022/04/13 02:57:34;;;;;;;14.73;7.07;;;0.00;99.90;;;;;;4141262;28;20263;-55
2022/04/13 02:59:35;;;;;;;17.50;7.80;;;-0.10;99.90;;;;;;4140968;28;20349;-53
2022/04/13 03:01:36;;;;;;;11.80;7.20;;;-0.10;99.90;;;;;;4141650;28;20755;-55
2022/04/13 03:03:37;;;;;;;14.27;7.23;;;-0.10;99.90;;;;;;4140228;28;20291;-63
2022/04/13 03:05:38;;;;;;;15.03;8.13;;;-0.10;99.90;;;;;;4141603;28;20715;-53
2022/04/13 03:07:40;;;;;;;14.60;7.90;;;-0.20;99.90;;;;;;4140415;28;20360;-53
2022/04/13 03:09:41;;;;;;;17.93;7.83;;;-0.20;99.90;;;;;;4142319;28;20678;-59
2022/04/13 03:11:42;;;;;;;14.80;7.40;;;-0.20;99.90;;;;;;4140020;28;20325;-56
2022/04/13 03:13:43;;;;;;;12.70;7.37;;;-0.20;99.90;;;;;;4141294;28;20275;-56
2022/04/13 03:15:44;;;;;;;17.47;7.97;;;-0.30;99.90;;;;;;4140650;28;20357;-57
2022/04/13 03:17:45;;;;;;;15.83;8.33;;;-0.40;99.90;;;;;;4141645;28;20345;-52
2022/04/13 03:19:46;;;;;;;13.40;7.63;;;-0.40;99.90;;;;;;4140346;28;20287;-53
2022/04/13 03:21:51;;;;;;;13.20;7.07;;;-0.40;99.90;;;;;;4131421;28;20283;-56
2022/04/13 03:23:52;;;;;;;12.97;7.10;;;-0.40;99.90;;;;;;4140594;28;20310;-54
2022/04/13 03:25:53;;;;;;;13.07;7.37;;;-0.40;99.90;;;;;;4140487;28;20264;-54
2022/04/13 03:27:54;;;;;;;14.93;7.07;;;-0.50;99.90;;;;;;4150266;28;20832;-54
2022/04/13 03:29:56;;;;;;;14.13;7.90;;;-0.50;99.90;;;;;;4156688;28;20271;-53
2022/04/13 03:31:57;;;;;;;11.40;6.90;;;-0.50;99.90;;;;;;4157252;28;20302;-59
2022/04/13 03:33:58;;;;;;;15.47;7.53;;;-0.50;99.90;;;;;;4156241;28;20743;-57
2022/04/13 03:35:59;;;;;;;14.40;8.07;;;-0.60;99.90;;;;;;4156256;28;20352;-59
2022/04/13 03:38:00;;;;;;;14.13;7.30;;;-0.60;99.90;;;;;;4156360;28;21024;-54
2022/04/13 03:40:01;;;;;;;15.60;7.10;;;-0.60;99.90;;;;;;4155049;28;20259;-58
2022/04/13 03:42:03;;;;;;;12.20;6.57;;;-0.60;99.90;;;;;;4148570;28;20259;-53
2022/04/13 03:44:04;;;;;;;17.43;7.67;;;-0.70;99.90;;;;;;4146425;28;20259;-59
2022/04/13 03:46:05;;;;;;;16.83;8.33;;;-0.70;99.90;;;;;;4139937;28;20287;-55
2022/04/13 03:48:06;;;;;;;18.37;9.07;;;-0.70;99.90;;;;;;4140891;28;20329;-59
2022/04/13 03:50:09;;;;;;;14.30;8.00;;;-0.70;99.90;;;;;;4156872;28;20353;-60
2022/04/13 03:52:10;;;;;;;14.13;8.03;;;-0.70;99.90;;;;;;4156766;28;20860;-58
2022/04/13 03:54:11;;;;;;;17.63;8.10;;;-0.60;99.90;;;;;;4123500;28;20288;-56
2022/04/13 03:56:13;;;;;;;14.23;8.63;;;-0.60;99.90;;;;;;4137298;28;20295;-56
2022/04/13 03:58:14;;;;;;;16.93;8.40;;;-0.60;99.90;;;;;;4141512;28;20678;-57
2022/04/13 04:00:15;;;;;;;16.00;9.50;;;-0.50;99.90;;;;;;4156223;28;20612;-60
2022/04/13 04:02:17;;;;;;;14.37;8.50;;;-0.20;99.90;;;;;;4154740;28;20267;-59
2022/04/13 04:04:18;;;;;;;21.63;8.60;;;0.20;99.90;;;;;;4143423;28;20284;-56
2022/04/13 04:06:19;;;;;;;16.47;8.30;;;0.60;99.90;;;;;;4141206;28;20283;-59
2022/04/13 04:08:20;;;;;;;18.23;8.20;;;1.00;99.90;;;;;;4139184;28;20639;-56
2022/04/13 04:10:22;;;;;;;18.00;8.30;;;1.40;99.90;;;;;;4142017;28;20326;-55
2022/04/13 04:12:24;;;;;;;18.03;9.23;;;1.80;99.90;;;;;;4155994;28;20805;-58
2022/04/13 04:14:25;;;;;;;24.17;10.80;;;2.00;99.90;;;;;;4157034;28;20271;-58
2022/04/13 04:16:26;;;;;;;34.90;12.93;;;2.40;99.90;;;;;;4155411;28;20302;-55
2022/04/13 04:18:27;;;;;;;33.73;14.77;;;2.70;99.90;;;;;;4156698;28;20282;-56
2022/04/13 04:20:28;;;;;;;35.33;14.67;;;3.00;99.90;;;;;;4155771;28;20325;-55
2022/04/13 04:22:30;;;;;;;29.90;13.47;;;3.40;99.90;;;;;;4157228;28;20267;-58
2022/04/13 04:24:31;;;;;;;34.87;13.40;;;3.70;99.90;;;;;;4156103;28;20615;-57
2022/04/13 04:26:32;;;;;;;28.90;11.87;;;4.10;99.90;;;;;;4153767;28;20282;-57
2022/04/13 04:28:33;;;;;;;20.80;10.17;;;4.40;99.90;;;;;;4155593;28;20270;-53
2022/04/13 04:30:34;;;;;;;20.37;10.03;;;4.80;99.90;;;;;;4153700;28;20678;-55
2022/04/13 04:32:36;;;;;;;19.97;10.00;;;5.20;99.90;;;;;;4156094;28;20321;-55
2022/04/13 04:34:37;;;;;;;16.50;9.03;;;5.60;99.90;;;;;;4155818;28;20839;-57
2022/04/13 04:36:38;;;;;;;24.03;8.87;;;6.10;99.90;;;;;;4156751;28;20770;-50
2022/04/13 04:38:39;;;;;;;19.87;8.30;;;6.60;99.90;;;;;;4155652;28;20266;-58
2022/04/13 04:40:41;;;;;;;21.37;9.83;;;7.00;99.90;;;;;;4153032;28;20298;-55
2022/04/13 04:42:49;;;;;;;17.27;9.10;;;7.10;99.20;;;;;;4166374;28;20302;-56
2022/04/13 04:44:56;;;;;;;16.57;8.87;;;7.30;98.20;;;;;;4130834;28;20268;-57
2022/04/13 04:46:57;;;;;;;15.30;8.40;;;7.50;98.00;;;;;;4137733;28;20275;-59
2022/04/13 04:48:58;;;;;;;14.17;9.23;;;7.90;97.70;;;;;;4144383;28;20295;-55
2022/04/13 04:50:59;;;;;;;15.70;7.83;;;8.20;96.80;;;;;;4149372;28;20119;-58
2022/04/13 04:53:00;;;;;;;14.60;7.83;;;8.50;95.90;;;;;;4140812;28;20096;-57
2022/04/13 04:55:01;;;;;;;17.97;7.60;;;8.70;94.70;;;;;;4139041;28;20449;-57
2022/04/13 04:57:03;;;;;;;18.20;8.53;;;8.90;94.50;;;;;;4128558;28;20170;-58
2022/04/13 04:59:04;;;;;;;13.30;7.63;;;9.10;94.10;;;;;;4142024;28;20350;-56
2022/04/13 05:01:05;;;;;;;13.23;7.40;;;9.30;93.10;;;;;;4143342;28;20054;-61
2022/04/13 05:03:08;;;;;;;13.60;7.23;;;9.50;93.00;;;;;;4142566;28;20155;-56
2022/04/13 05:05:09;;;;;;;15.63;7.27;;;9.70;92.40;;;;;;4137338;28;20022;-55
2022/04/13 05:07:10;;;;;;;15.73;7.87;;;10.10;92.00;;;;;;4126750;28;20097;-64
2022/04/13 05:09:11;;;;;;;16.60;8.23;;;10.50;91.20;;;;;;4130045;28;20099;-61
2022/04/13 05:11:12;;;;;;;13.10;8.17;;;11.10;90.40;;;;;;4159606;28;20115;-58
2022/04/13 05:13:14;;;;;;;22.83;8.70;;;11.70;89.10;;;;;;4158352;28;20120;-57
2022/04/13 05:15:15;;;;;;;17.13;7.10;;;12.20;87.20;;;;;;4159342;28;20049;-62
2022/04/13 05:17:18;;;;;;;13.07;7.70;;;12.60;84.10;;;;;;4158422;28;20053;-59
2022/04/13 05:19:19;;;;;;;15.10;7.43;;;13.10;83.40;;;;;;4159811;28;20083;-57
2022/04/13 05:21:20;;;;;;;12.63;7.20;;;13.20;80.80;;;;;;4157488;28;20762;-64
2022/04/13 05:23:22;;;;;;;13.43;6.43;;;13.30;80.00;;;;;;4159238;28;20095;-60
2022/04/13 05:25:23;;;;;;;12.40;5.27;;;13.60;78.50;;;;;;4158088;28;20041;-57
2022/04/13 05:27:24;;;;;;;12.70;6.60;;;13.70;77.60;;;;;;4157829;28;20045;-57
2022/04/13 05:29:25;;;;;;;13.23;6.43;;;14.00;76.50;;;;;;4158004;28;20087;-60
2022/04/13 05:31:26;;;;;;;16.23;7.77;;;14.60;74.90;;;;;;4158641;28;20096;-59
2022/04/13 05:33:28;;;;;;;11.03;7.20;;;15.00;73.00;;;;;;4158971;28;20505;-57
2022/04/13 05:35:29;;;;;;;9.33;5.37;;;15.00;71.70;;;;;;4158281;28;20053;-59
2022/04/13 05:37:30;;;;;;;5.23;3.93;;;14.90;71.60;;;;;;4158379;28;20041;-64
2022/04/13 05:39:31;;;;;;;12.13;6.60;;;15.10;69.70;;;;;;4157587;28;20084;-60
2022/04/13 05:41:33;;;;;;;9.37;4.80;;;15.00;69.30;;;;;;4158934;28;20021;-59
2022/04/13 05:43:35;;;;;;;9.17;4.50;;;15.10;68.80;;;;;;4157964;28;20486;-60
2022/04/13 05:45:37;;;;;;;14.37;6.97;;;15.00;68.40;;;;;;4159273;28;20099;-61
2022/04/13 05:47:42;;;;;;;12.67;7.07;;;15.20;67.70;;;;;;4157081;28;20045;-59
2022/04/13 05:49:44;;;;;;;17.33;6.23;;;15.10;67.00;;;;;;4158898;28;20037;-59
2022/04/13 05:51:45;;;;;;;17.67;6.73;;;15.20;66.90;;;;;;4157798;28;20440;-55
2022/04/13 05:53:46;;;;;;;12.17;6.60;;;15.50;66.30;;;;;;4159390;28;20033;-58
2022/04/13 05:55:49;;;;;;;17.80;6.30;;;16.00;65.40;;;;;;4157776;28;20111;-56
2022/04/13 05:57:50;;;;;;;10.20;5.00;;;15.80;64.20;;;;;;4159025;28;20033;-56
2022/04/13 05:59:51;;;;;;;7.87;4.07;;;15.40;63.90;;;;;;4157439;28;20037;-59
2022/04/13 06:01:52;;;;;;;16.00;6.03;;;15.10;64.10;;;;;;4158249;28;20111;-57
2022/04/13 06:03:53;;;;;;;13.17;6.23;;;15.00;64.10;;;;;;4157358;28;20033;-57
2022/04/13 06:05:56;;;;;;;16.60;6.93;;;14.70;64.00;;;;;;4157559;28;20307;-63
2022/04/13 06:07:57;;;;;;;10.07;6.47;;;14.60;64.60;;;;;;4157652;28;20029;-56
2022/04/13 06:10:01;;;;;;;15.20;5.63;;;14.30;64.30;;;;;;4156362;28;20437;-58
2022/04/13 06:12:03;;;;;;;10.70;5.67;;;13.90;64.90;;;;;;4158819;28;20030;-59
2022/04/13 06:14:04;;;;;;;12.90;5.43;;;13.20;64.90;;;;;;4157381;28;20095;-58
2022/04/13 06:16:07;;;;;;;13.83;6.80;;;13.30;65.40;;;;;;4158626;28;20053;-56
2022/04/13 06:18:08;;;;;;;11.73;6.50;;;13.40;65.40;;;;;;4156989;28;20103;-55
2022/04/13 06:20:10;;;;;;;17.97;7.43;;;13.60;64.60;;;;;;4159083;28;20106;-56
2022/04/13 06:22:11;;;;;;;18.10;7.30;;;13.40;64.90;;;;;;4157540;28;20034;-60
2022/04/13 06:24:12;;;;;;;16.87;6.80;;;13.20;64.90;;;;;;4158661;28;20505;-59
2022/04/13 06:26:13;;;;;;;15.50;6.43;;;13.60;65.40;;;;;;4157310;28;20470;-60
2022/04/13 06:28:15;;;;;;;13.20;6.40;;;14.00;64.70;;;;;;4158660;28;20432;-60
2022/04/13 06:30:16;;;;;;;15.30;5.97;;;14.50;64.00;;;;;;4157430;28;20658;-58
2022/04/13 06:32:17;;;;;;;12.90;6.53;;;14.80;62.90;;;;;;4157983;28;20037;-59
2022/04/13 06:34:18;;;;;;;16.30;5.87;;;14.50;63.00;;;;;;4156930;28;20041;-58
2022/04/13 06:36:20;;;;;;;11.60;6.40;;;14.50;62.70;;;;;;4158010;28;20494;-63
2022/04/13 06:38:21;;;;;;;10.50;5.63;;;14.90;62.80;;;;;;4157690;28;20594;-58
2022/04/13 06:40:22;;;;;;;13.37;6.50;;;15.10;62.00;;;;;;4157702;28;20085;-60
2022/04/13 06:42:23;;;;;;;14.10;7.27;;;15.20;61.60;;;;;;4156444;28;20107;-59
2022/04/13 06:44:25;;;;;;;12.73;6.13;;;15.20;61.40;;;;;;4157374;28;20029;-58
2022/04/13 06:46:26;;;;;;;18.80;6.80;;;15.00;61.20;;;;;;4158099;28;20087;-58
2022/04/13 06:48:27;;;;;;;14.80;6.27;;;14.40;61.40;;;;;;4156795;28;20571;-59
2022/04/13 06:50:28;;;;;;;13.63;5.90;;;13.80;62.00;;;;;;4158579;28;20548;-59
2022/04/13 06:52:37;;;;;;;13.77;5.67;;;14.30;62.10;;;;;;4156534;28;20916;-62
2022/04/13 06:54:38;;;;;;;9.97;5.27;;;14.10;60.50;;;;;;4158148;28;20042;-58
2022/04/13 06:56:39;;;;;;;11.53;4.80;;;13.90;62.00;;;;;;4156540;28;20456;-64
2022/04/13 06:58:42;;;;;;;9.17;5.10;;;13.90;61.70;;;;;;4158149;28;20076;-59
2022/04/13 07:00:43;;;;;;;12.53;5.77;;;13.20;61.50;;;;;;4156755;28;20099;-60
2022/04/13 07:02:45;;;;;;;14.60;5.93;;;12.80;62.60;;;;;;4157627;28;20470;-61
2022/04/13 07:04:46;;;;;;;11.23;4.33;;;12.50;63.20;;;;;;4156682;28;20079;-57
2022/04/13 07:06:47;;;;;;;5.83;3.90;;;12.50;62.90;;;;;;4158141;28;20371;-57
2022/04/13 07:08:48;;;;;;;3.87;3.37;;;12.40;63.00;;;;;;4155857;28;20030;-59
2022/04/13 07:10:49;;;;;;;9.60;3.90;;;12.00;62.30;;;;;;4157169;28;20033;-63
2022/04/13 07:12:51;;;;;;;6.90;3.77;;;11.90;63.00;;;;;;4157149;28;20107;-63
2022/04/13 07:14:56;;;;;;;7.03;3.43;;;12.20;63.10;;;;;;4157051;28;20029;-61
2022/04/13 07:16:57;;;;;;;5.27;3.20;;;12.30;62.70;;;;;;4156927;28;20053;-55
2022/04/13 07:18:58;;;;;;;3.67;2.83;;;12.00;62.80;;;;;;4156164;28;20029;-64
2022/04/13 07:20:59;;;;;;;7.30;2.70;;;11.90;62.60;;;;;;4157840;28;20033;-59
2022/04/13 07:23:00;;;;;;;3.27;2.60;;;11.60;62.50;;;;;;4156551;28;20473;-57
2022/04/13 07:25:01;;;;;;;4.90;3.13;;;11.50;62.30;;;;;;4157722;28;20091;-59
2022/04/13 07:27:03;;;;;;;3.13;2.03;;;11.60;62.70;;;;;;4155709;28;20119;-66
2022/04/13 07:29:04;;;;;;;5.23;2.67;;;11.70;62.00;;;;;;4157458;28;20041;-60
2022/04/13 07:31:05;;;;;;;4.07;2.20;;;11.60;62.40;;;;;;4155877;28;20508;-63
2022/04/13 07:33:06;;;;;;;5.07;2.10;;;11.90;62.10;;;;;;4157357;28;20466;-53
2022/04/13 07:35:08;;;;;;;3.63;2.73;;;11.70;61.90;;;;;;4155739;28;20038;-59
2022/04/13 07:37:09;;;;;;;3.43;2.03;;;11.40;62.40;;;;;;4157507;28;20104;-63
2022/04/13 07:39:10;;;;;;;3.43;2.40;;;11.40;62.40;;;;;;4156780;28;20091;-53
2022/04/13 07:41:11;;;;;;;8.23;2.97;;;11.30;62.00;;;;;;4156531;28;20029;-59
2022/04/13 07:43:14;;;;;;;4.63;2.40;;;11.60;62.30;;;;;;4156758;28;20148;-61
2022/04/13 07:45:15;;;;;;;7.93;2.87;;;12.00;61.60;;;;;;4156390;28;20079;-60
2022/04/13 07:47:16;;;;;;;3.60;2.40;;;12.10;61.70;;;;;;4157121;28;20033;-59
2022/04/13 07:49:17;;;;;;;2.27;2.00;;;12.00;61.20;;;;;;4155944;28;20026;-60
2022/04/13 07:51:18;;;;;;;27.83;8.03;;;11.80;60.10;;;;;;4157611;28;20029;-56
2022/04/13 07:53:20;;;;;;;13.50;6.77;;;12.00;60.00;;;;;;4156001;28;20047;-59
2022/04/13 07:55:21;;;;;;;11.93;5.67;;;12.10;60.00;;;;;;4156027;28;20080;-56
2022/04/13 07:57:22;;;;;;;11.10;4.60;;;12.00;59.30;;;;;;4155571;28;20079;-61
2022/04/13 07:59:23;;;;;;;7.17;4.20;;;12.00;59.70;;;;;;4157054;28;20034;-61
2022/04/13 08:01:24;;;;;;;6.17;3.37;;;12.20;60.00;;;;;;4155221;28;20107;-60
2022/04/13 08:03:26;;;;;;;4.73;2.67;;;12.60;59.90;;;;;;4157291;28;20064;-60
2022/04/13 08:05:27;;;;;;;5.07;2.73;;;12.80;59.00;;;;;;4155559;28;20631;-64
2022/04/13 08:07:28;;;;;;;6.80;3.13;;;12.90;58.30;;;;;;4156813;28;20045;-57
2022/04/13 08:09:29;;;;;;;5.50;1.60;;;12.80;58.20;;;;;;4155830;28;20630;-58
2022/04/13 08:11:30;;;;;;;7.97;2.03;;;12.70;58.30;;;;;;4156325;28;20100;-65
2022/04/13 08:13:32;;;;;;;3.40;2.30;;;12.30;57.70;;;;;;4156478;28;20448;-58
2022/04/13 08:15:33;;;;;;;4.77;2.07;;;12.20;58.20;;;;;;4156297;28;20038;-59
2022/04/13 08:17:35;;;;;;;5.67;2.23;;;12.40;58.80;;;;;;4156205;28;20088;-58
2022/04/13 08:19:36;;;;;;;4.30;2.23;;;12.20;58.50;;;;;;4155608;28;20033;-67
2022/04/13 08:21:38;;;;;;;3.47;2.27;;;12.10;58.60;;;;;;4157289;28;20045;-57
2022/04/13 08:23:39;;;;;;;3.43;1.83;;;12.20;58.30;;;;;;4155969;28;20622;-62
2022/04/13 08:25:40;;;;;;;5.00;2.03;;;12.40;58.20;;;;;;4156896;28;20045;-62
2022/04/13 08:27:42;;;;;;;2.93;1.70;;;12.60;58.30;;;;;;4155546;28;20037;-54
2022/04/13 08:29:46;;;;;;;3.50;1.77;;;12.90;58.10;;;;;;4155275;28;20126;-61
2022/04/13 08:31:47;;;;;;;3.03;1.97;;;12.90;57.50;;;;;;4155352;28;20043;-61
2022/04/13 08:33:48;;;;;;;2.87;2.03;;;13.10;57.90;;;;;;4159749;28;20079;-56
2022/04/13 08:35:50;;;;;;;3.37;2.00;;;12.90;56.60;;;;;;4158500;28;20046;-57
2022/04/13 08:37:51;;;;;;;8.50;2.70;;;12.40;56.90;;;;;;4159564;28;20080;-58
2022/04/13 08:39:52;;;;;;;5.63;2.70;;;12.30;57.40;;;;;;4157171;28;20045;-54
2022/04/13 08:41:58;;;;;;;5.50;3.07;;;12.30;58.20;;;;;;4159850;28;20042;-68
2022/04/13 08:44:09;;;;;;;8.77;2.60;;;12.20;57.50;;;;;;4159434;28;20026;-59
2022/04/13 08:46:24;;;;;;;3.57;2.53;;;12.00;57.70;;;;;;4159046;28;20025;-60
2022/04/13 08:48:26;;;;;;;4.90;2.40;;;12.00;57.70;;;;;;4158138;28;20045;-62
2022/04/13 08:50:31;;;;;;;4.70;3.10;;;12.10;58.60;;;;;;4159804;28;20505;-60
2022/04/13 08:52:36;;;;;;;3.93;2.57;;;12.50;58.50;;;;;;4159049;28;20092;-56
2022/04/13 08:55:07;;;;;;;3.50;2.20;;;12.80;58.10;;;;;;4159303;28;20052;-57
2022/04/13 08:57:11;;;;;;;3.63;2.13;;;13.00;58.10;;;;;;4156147;28;20148;-59
2022/04/13 08:59:15;;;;;;;2.70;2.13;;;13.40;57.70;;;;;;4159739;28;20034;-60
2022/04/13 09:01:25;;;;;;;4.10;2.30;;;13.10;56.90;;;;;;4158787;28;20442;-62
2022/04/13 09:03:37;;;;;;;3.47;1.83;;;12.50;57.40;;;;;;4159582;28;20029;-63
2022/04/13 09:05:40;;;;;;;3.20;1.97;;;12.20;57.80;;;;;;4158783;28;20108;-57
2022/04/13 09:07:44;;;;;;;3.37;2.07;;;12.00;57.80;;;;;;4158615;28;20052;-59
2022/04/13 09:09:49;;;;;;;3.57;2.47;;;11.60;57.60;;;;;;4158623;28;20124;-58
2022/04/13 09:11:51;;;;;;;3.57;2.60;;;11.50;58.20;;;;;;4158326;28;20053;-59
2022/04/13 09:13:52;;;;;;;2.80;1.90;;;11.40;58.10;;;;;;4159257;28;20082;-60
2022/04/13 09:15:54;;;;;;;3.03;2.03;;;11.40;58.20;;;;;;4158020;28;20029;-66
2022/04/13 09:17:55;;;;;;;5.53;2.10;;;11.40;58.00;;;;;;4158812;28;20162;-66
2022/04/13 09:19:58;;;;;;;4.73;2.40;;;11.30;58.60;;;;;;4158743;28;20095;-58
2022/04/13 09:22:00;;;;;;;4.80;2.53;;;11.00;58.20;;;;;;4159707;28;20777;-61
2022/04/13 09:24:02;;;;;;;5.53;2.27;;;10.90;58.60;;;;;;4158127;28;20095;-58
2022/04/13 09:26:07;;;;;;;4.60;2.43;;;10.90;59.20;;;;;;4159011;28;20551;-64
2022/04/13 09:28:08;;;;;;;3.63;2.40;;;10.90;58.70;;;;;;4157970;28;20025;-57
2022/04/13 09:30:10;;;;;;;5.60;2.50;;;11.00;58.60;;;;;;4158853;28;20072;-63
2022/04/13 09:32:12;;;;;;;4.87;2.30;;;11.30;58.90;;;;;;4157943;28;20088;-67
2022/04/13 09:34:13;;;;;;;3.50;2.30;;;11.60;59.40;;;;;;4159620;28;20021;-58
2022/04/13 09:36:15;;;;;;;6.60;2.00;;;11.90;59.00;;;;;;4157622;28;20037;-56
2022/04/13 09:38:19;;;;;;;6.40;2.03;;;12.40;58.50;;;;;;4159172;28;20029;-58
2022/04/13 09:40:33;;;;;;;3.23;2.07;;;12.70;58.20;;;;;;4158207;28;20075;-59
2022/04/13 09:42:35;;;;;;;3.93;2.23;;;12.90;57.80;;;;;;4158893;28;20029;-58
2022/04/13 09:44:43;;;;;;;5.10;2.20;;;12.70;57.00;;;;;;4157562;28;20029;-54
2022/04/13 09:46:44;;;;;;;5.17;2.00;;;12.40;56.10;;;;;;4157883;28;20041;-63
2022/04/13 09:49:06;;;;;;;3.57;2.00;;;12.20;57.10;;;;;;4158329;28;20124;-59
2022/04/13 09:51:08;;;;;;;3.23;1.80;;;12.20;57.20;;;;;;4158909;28;20033;-58
2022/04/13 09:53:10;;;;;;;2.90;2.13;;;12.10;56.90;;;;;;4158163;28;20107;-57
2022/04/13 09:55:12;;;;;;;6.17;2.50;;;11.80;56.90;;;;;;4158203;28;20080;-60
2022/04/13 09:57:23;;;;;;;12.53;2.77;;;11.60;57.20;;;;;;4158466;28;20335;-59
2022/04/13 09:59:29;;;;;;;4.00;2.03;;;11.50;57.10;;;;;;4157708;28;20033;-54
2022/04/13 10:01:35;;;;;;;3.67;2.13;;;11.60;57.70;;;;;;4158156;28;20068;-56
2022/04/13 10:03:36;;;;;;;4.40;2.20;;;11.60;57.60;;;;;;4157244;28;20084;-64
2022/04/13 10:05:38;;;;;;;5.07;2.07;;;11.60;57.90;;;;;;4158862;28;20026;-59
2022/04/13 10:07:39;;;;;;;3.83;2.00;;;11.70;57.30;;;;;;4157830;28;20440;-60
2022/04/13 10:09:40;;;;;;;3.43;2.33;;;11.60;57.00;;;;;;4158363;28;20059;-59
2022/04/13 10:11:59;;;;;;;3.23;2.10;;;11.50;56.70;;;;;;4157018;28;20079;-57
2022/04/13 10:14:05;;;;;;;4.17;1.83;;;11.50;56.30;;;;;;4158320;28;20440;-58
2022/04/13 10:16:11;;;;;;;4.23;2.20;;;11.40;57.80;;;;;;4156682;28;20107;-58
2022/04/13 10:18:13;;;;;;;5.43;2.47;;;11.70;57.20;;;;;;4157397;28;20053;-67
2022/04/13 10:20:15;;;;;;;4.17;1.83;;;11.70;57.00;;;;;;4156876;28;20076;-57
2022/04/13 10:22:17;;;;;;;2.53;1.60;;;11.90;57.10;;;;;;4159001;28;20045;-59
2022/04/13 10:24:21;;;;;;;1.73;1.50;;;11.80;56.60;;;;;;4155193;28;20045;-59
2022/04/13 10:26:22;;;;;;;3.50;1.97;;;11.90;56.90;;;;;;4158461;28;20374;-57
2022/04/13 10:28:26;;;;;;;3.93;1.83;;;12.10;56.90;;;;;;4157203;28;20406;-59
2022/04/13 10:30:30;;;;;;;4.60;1.93;;;12.10;56.50;;;;;;4157615;28;20038;-61
2022/04/13 10:32:31;;;;;;;9.63;2.03;;;12.00;56.90;;;;;;4156189;28;20045;-56